createdAt,value
2022-09-12T00:03:09.938Z,100661.41
2022-09-12T00:08:12.753Z,100656.94
2022-09-12T00:13:14.217Z,100657.50
2022-09-12T00:18:16.886Z,100657.94
2022-09-12T00:23:19.217Z,100654.28
2022-09-12T00:28:20.605Z,100650.50
2022-09-12T00:33:22.248Z,100645.06
2022-09-12T00:38:23.809Z,100635.00
2022-09-12T00:43:39.526Z,100624.41
2022-09-12T00:48:55.941Z,100631.25
2022-09-12T00:53:59.921Z,100626.09
2022-09-12T00:59:06.973Z,100625.66
2022-09-12T01:04:10.738Z,100623.47
2022-09-12T01:09:17.007Z,100614.63
2022-09-12T01:14:19.789Z,100616.59
2022-09-12T01:20:00.182Z,100607.56
2022-09-12T01:25:11.987Z,100607.56
2022-09-12T01:30:39.342Z,100605.16
2022-09-12T01:35:58.931Z,100610.47
2022-09-12T01:41:26.956Z,100600.28
2022-09-12T01:46:35.755Z,100607.69
2022-09-12T01:51:53.314Z,100601.53
2022-09-12T01:57:01.440Z,100602.78
2022-09-12T02:02:17.961Z,100596.25
2022-09-12T02:07:23.690Z,100585.06
2022-09-12T02:12:29.377Z,100587.28
2022-09-12T02:17:37.989Z,100584.78
2022-09-12T02:22:41.796Z,100581.16
2022-09-12T02:27:50.749Z,100573.47
2022-09-12T02:33:01.484Z,100583.25
2022-09-12T02:38:23.542Z,100580.16
2022-09-12T02:43:25.082Z,100581.84
2022-09-12T02:48:30.430Z,100587.16
2022-09-12T02:53:32.288Z,100585.63
2022-09-12T02:58:34.393Z,100579.78
2022-09-12T03:03:54.908Z,100579.47
2022-09-12T03:09:14.892Z,100568.03
2022-09-12T03:14:53.684Z,100569.56
2022-09-12T03:20:03.500Z,100575.44
2022-09-12T03:25:42.378Z,100581.72
2022-09-12T03:30:46.469Z,100575.72
2022-09-12T03:35:49.166Z,100575.88
2022-09-12T03:40:54.702Z,100576.81
2022-09-12T03:45:56.597Z,100583.25
2022-09-12T03:51:03.093Z,100570.56
2022-09-12T03:56:09.666Z,100575.28
2022-09-12T04:01:13.524Z,100577.38
2022-09-12T04:06:17.973Z,100579.91
2022-09-12T04:11:20.566Z,100577.50
2022-09-12T04:16:22.055Z,100576.69
2022-09-12T04:21:23.715Z,100574.47
2022-09-12T04:26:25.163Z,100573.34
2022-09-12T04:31:27.020Z,100582.47
2022-09-12T04:36:29.539Z,100572.19
2022-09-12T04:41:34.087Z,100578.47
2022-09-12T04:46:38.176Z,100564.69
2022-09-12T04:51:42.137Z,100557.00
2022-09-12T04:56:46.299Z,100569.56
2022-09-12T05:01:47.936Z,100570.06
2022-09-12T05:06:50.140Z,100567.59
2022-09-12T05:12:06.902Z,100571.59
2022-09-12T05:17:08.405Z,100563.66
2022-09-12T05:22:09.983Z,100562.84
2022-09-12T05:27:11.489Z,100560.09
2022-09-12T05:32:12.906Z,100556.03
2022-09-12T05:37:14.404Z,100550.16
2022-09-12T05:42:15.891Z,100554.50
2022-09-12T05:47:17.279Z,100559.94
2022-09-12T05:52:18.706Z,100557.44
2022-09-12T05:57:20.163Z,100563.31
2022-09-12T06:02:21.925Z,100565.25
2022-09-12T06:07:23.416Z,100572.22
2022-09-12T06:12:25.657Z,100571.38
2022-09-12T06:17:27.109Z,100574.84
2022-09-12T06:22:28.537Z,100574.75
2022-09-12T06:27:30.161Z,100568.88
2022-09-12T06:32:31.545Z,100567.59
2022-09-12T06:37:32.955Z,100563.53
2022-09-12T06:42:34.325Z,100570.38
2022-09-12T06:47:35.907Z,100568.81
2022-09-12T06:52:37.337Z,100575.34
2022-09-12T06:57:38.731Z,100576.47
2022-09-12T07:02:40.246Z,100576.56
2022-09-12T07:07:41.688Z,100571.50
2022-09-12T07:12:43.115Z,100568.53
2022-09-12T07:17:44.609Z,100564.13
2022-09-12T07:22:46.005Z,100557.22
2022-09-12T07:27:51.093Z,100557.63
2022-09-12T07:32:54.398Z,100549.81
2022-09-12T07:37:55.867Z,100551.22
2022-09-12T07:42:57.264Z,100555.81
2022-09-12T07:47:58.790Z,100554.78
2022-09-12T07:53:00.366Z,100557.34
2022-09-12T07:58:01.770Z,100561.19
2022-09-12T08:03:03.505Z,100562.09
2022-09-12T08:08:07.988Z,100568.56
2022-09-12T08:13:10.804Z,100560.56
2022-09-12T08:18:12.442Z,100560.72
2022-09-12T08:23:13.899Z,100561.41
2022-09-12T08:28:15.463Z,100560.59
2022-09-12T08:33:17.023Z,100562.06
2022-09-12T08:38:19.587Z,100558.09
2022-09-12T08:43:47.864Z,100560.84
2022-09-12T08:48:51.851Z,100560.72
2022-09-12T08:53:56.362Z,100542.66
2022-09-12T08:58:57.845Z,100549.44
2022-09-12T09:04:32.757Z,100536.22
2022-09-12T09:09:44.349Z,100535.09
2022-09-12T09:15:25.501Z,100526.69
2022-09-12T09:20:44.861Z,100520.97
2022-09-12T09:26:10.013Z,100515.53
2022-09-12T09:31:19.797Z,100507.00
2022-09-12T09:36:42.357Z,100501.47
2022-09-12T09:42:00.922Z,100497.34
2022-09-12T09:47:02.676Z,100492.97
2022-09-12T09:52:07.101Z,100483.97
2022-09-12T09:57:36.399Z,100481.50
2022-09-12T10:02:37.933Z,100476.16
2022-09-12T10:07:50.312Z,100462.94
2022-09-12T10:13:06.037Z,100460.44
2022-09-12T10:18:07.445Z,100448.50
2022-09-12T10:23:27.723Z,100453.88
2022-09-12T10:28:36.566Z,100452.22
2022-09-12T10:33:45.035Z,100443.50
2022-09-12T10:38:53.396Z,100436.88
2022-09-12T10:44:07.262Z,100440.63
2022-09-12T10:49:21.936Z,100435.66
2022-09-12T10:54:26.896Z,100433.16
2022-09-12T10:59:38.686Z,100428.00
2022-09-12T11:05:12.819Z,100425.06
2022-09-12T11:10:24.254Z,100424.84
2022-09-12T11:15:47.378Z,100407.91
2022-09-12T11:20:57.734Z,100414.28
2022-09-12T11:26:23.531Z,100414.94
2022-09-12T11:31:56.111Z,100391.72
2022-09-12T11:37:31.490Z,100398.13
2022-09-12T11:42:37.476Z,100392.97
2022-09-12T11:47:41.769Z,100386.78
2022-09-12T11:52:43.402Z,100381.81
2022-09-12T11:57:52.821Z,100385.94
2022-09-12T12:03:37.016Z,100377.03
2022-09-12T12:08:43.659Z,100375.81
2022-09-12T12:13:59.143Z,100373.28
2022-09-12T12:19:27.475Z,100362.91
2022-09-12T12:24:28.998Z,100360.03
2022-09-12T12:29:44.257Z,100346.81
2022-09-12T12:34:47.641Z,100345.97
2022-09-12T12:39:49.040Z,100334.19
2022-09-12T12:44:50.927Z,100340.41
2022-09-12T12:49:56.488Z,100321.38
2022-09-12T12:55:02.025Z,100321.75
2022-09-12T13:00:24.663Z,100308.94
2022-09-12T13:05:27.979Z,100312.66
2022-09-12T13:10:31.099Z,100303.53
2022-09-12T13:15:35.381Z,100289.88
2022-09-12T13:20:47.130Z,100287.00
2022-09-12T13:25:53.369Z,100272.72
2022-09-12T13:31:00.172Z,100279.34
2022-09-12T13:36:25.835Z,100266.72
2022-09-12T13:41:44.823Z,100265.91
2022-09-12T13:46:47.331Z,100265.47
2022-09-12T13:52:18.989Z,100257.63
2022-09-12T13:57:35.621Z,100246.66
2022-09-12T14:02:40.107Z,100242.88
2022-09-12T14:08:06.462Z,100244.38
2022-09-12T14:13:24.097Z,100236.75
2022-09-12T14:18:28.813Z,100238.81
2022-09-12T14:23:31.895Z,100232.13
2022-09-12T14:28:34.110Z,100235.69
2022-09-12T14:34:08.350Z,100227.84
2022-09-12T14:39:40.050Z,100219.13
2022-09-12T14:44:52.011Z,100214.63
2022-09-12T14:49:54.106Z,100210.25
2022-09-12T14:55:23.123Z,100206.25
2022-09-12T15:00:24.589Z,100203.78
2022-09-12T15:05:27.278Z,100204.19
2022-09-12T15:10:28.643Z,100206.09
2022-09-12T15:15:30.447Z,100195.53
2022-09-12T15:20:33.329Z,100198.88
2022-09-12T15:25:34.881Z,100194.06
2022-09-12T15:30:36.313Z,100190.13
2022-09-12T15:35:38.121Z,100187.44
2022-09-12T15:40:40.090Z,100185.81
2022-09-12T15:45:43.458Z,100172.56
2022-09-12T15:50:45.360Z,100170.28
2022-09-12T15:55:46.746Z,100170.13
2022-09-12T16:00:48.526Z,100158.31
2022-09-12T16:05:50.952Z,100159.78
2022-09-12T16:10:57.188Z,100154.72
2022-09-12T16:15:59.713Z,100157.06
2022-09-12T16:21:01.309Z,100158.88
2022-09-12T16:26:05.915Z,100161.28
2022-09-12T16:31:10.299Z,100149.94
2022-09-12T16:36:14.291Z,100156.91
2022-09-12T16:41:17.330Z,100160.59
2022-09-12T16:46:21.801Z,100152.50
2022-09-12T16:51:26.913Z,100151.44
2022-09-12T16:56:28.453Z,100140.28
2022-09-12T17:01:29.953Z,100142.91
2022-09-12T17:06:33.122Z,100136.44
2022-09-12T17:11:36.981Z,100135.41
2022-09-12T17:16:41.403Z,100138.66
2022-09-12T17:21:43.668Z,100134.75
2022-09-12T17:26:46.354Z,100136.78
2022-09-12T17:31:48.316Z,100130.28
2022-09-12T17:36:49.843Z,100133.84
2022-09-12T17:41:51.229Z,100139.72
2022-09-12T17:46:52.637Z,100131.53
2022-09-12T17:51:54.026Z,100134.66
2022-09-12T17:56:55.411Z,100128.59
2022-09-12T18:01:56.945Z,100128.06
2022-09-12T18:06:58.552Z,100146.81
2022-09-12T18:11:59.946Z,100146.28
2022-09-12T18:17:01.469Z,100139.66
2022-09-12T18:22:04.864Z,100157.97
2022-09-12T18:27:06.293Z,100154.56
2022-09-12T18:32:07.671Z,100156.03
2022-09-12T18:37:09.065Z,100154.00
2022-09-12T18:42:10.477Z,100150.28
2022-09-12T18:47:11.899Z,100156.34
2022-09-12T18:52:13.361Z,100165.47
2022-09-12T18:57:14.854Z,100169.66
2022-09-12T19:02:16.628Z,100166.88
2022-09-12T19:07:18.056Z,100164.06
2022-09-12T19:12:19.548Z,100155.78
2022-09-12T19:17:20.930Z,100165.25
2022-09-12T19:22:22.361Z,100160.22
2022-09-12T19:27:23.935Z,100139.63
2022-09-12T19:32:25.310Z,100139.13
2022-09-12T19:37:29.547Z,100133.72
2022-09-12T19:42:30.977Z,100140.25
2022-09-12T19:47:32.370Z,100148.00
2022-09-12T19:52:33.883Z,100132.69
2022-09-12T19:57:35.430Z,100123.44
2022-09-12T20:02:37.078Z,100118.66
2022-09-12T20:07:38.638Z,100123.84
2022-09-12T20:12:40.199Z,100118.28
2022-09-12T20:17:41.584Z,100111.66
2022-09-12T20:22:43.029Z,100108.16
2022-09-12T20:27:44.500Z,100104.69
2022-09-12T20:32:45.901Z,100135.50
2022-09-12T20:37:47.369Z,100141.44
2022-09-12T20:42:48.859Z,100118.13
2022-09-12T20:47:50.264Z,100113.78
2022-09-12T20:52:51.787Z,100120.13
2022-09-12T20:57:53.224Z,100111.13
2022-09-12T21:02:54.655Z,100104.81
2022-09-12T21:07:56.137Z,100105.47
2022-09-12T21:12:57.621Z,100105.13
2022-09-12T21:17:59.017Z,100101.03
2022-09-12T21:23:00.691Z,100094.03
2022-09-12T21:28:02.370Z,100093.56
2022-09-12T21:33:03.822Z,100095.56
2022-09-12T21:38:05.283Z,100098.03
2022-09-12T21:43:11.835Z,100102.22
2022-09-12T21:48:14.127Z,100117.34
2022-09-12T21:53:15.584Z,100127.81
2022-09-12T21:58:17.213Z,100119.00
2022-09-12T22:03:18.649Z,100115.81
2022-09-12T22:08:20.061Z,100099.91
2022-09-12T22:13:21.565Z,100089.41
2022-09-12T22:18:22.992Z,100099.69
2022-09-12T22:23:25.156Z,100093.22
2022-09-12T22:28:27.014Z,100086.31
2022-09-12T22:33:28.462Z,100085.56
2022-09-12T22:38:29.947Z,100077.34
2022-09-12T22:43:32.542Z,100076.84
2022-09-12T22:48:34.014Z,100086.31
2022-09-12T22:53:35.938Z,100085.25
2022-09-12T22:58:37.462Z,100088.59
2022-09-12T23:03:39.051Z,100103.19
2022-09-12T23:08:40.637Z,100096.56
2022-09-12T23:13:44.333Z,100095.72
2022-09-12T23:18:46.565Z,100079.66
2022-09-12T23:23:48.725Z,100068.50
2022-09-12T23:28:53.325Z,100060.97
2022-09-12T23:33:56.348Z,100077.16
2022-09-12T23:38:58.141Z,100063.06
2022-09-12T23:43:59.681Z,100066.69
2022-09-12T23:49:01.263Z,100061.47
2022-09-12T23:54:02.808Z,100062.28
2022-09-12T23:59:04.268Z,100064.34
